Terminal Aerodrome Forecast
Issued by NWS North Platte, NE

Home | Current Version | Previous Version | Text Only | Print | Product List | Glossary On
Versions: 1 2 3 4 5 6 7 8 9 10 11 12 13
222
FTUS43 KLBF 212320
TAFVTN
TAF
KVTN 212320Z 2200/2224 33009G16KT P6SM VCSH SCT100
     FM220100 26008KT P6SM SCT100
     FM220900 27009KT P6SM FEW250
     FM221500 30013G20KT P6SM BKN100 PROB30 2216/2219 5SM -SHRA
      OVC050
     FM221900 33015G22KT P6SM BKN080 PROB30 2221/2224 4SM TSRA
      OVC040CB=

USA.gov is the U.S. government's official web portal to all federal, state and local government web resources and services.